sensor_id;sensor_type;location;lat;lon;timestamp;pressure;altitude;pressure_sealevel;temperature;humidity
75745;BME280;64359;51.366;-0.222;2023-03-14T00:00:37;98355.58;;;22.58;47.14
75745;BME280;64359;51.366;-0.222;2023-03-14T00:01:39;98362.58;;;22.58;47.26
75745;BME280;64359;51.366;-0.222;2023-03-14T00:02:42;98360.79;;;22.58;47.20
75745;BME280;64359;51.366;-0.222;2023-03-14T00:03:44;98359.16;;;22.58;47.20
75745;BME280;64359;51.366;-0.222;2023-03-14T00:04:46;98360.03;;;22.58;47.27
75745;BME280;64359;51.366;-0.222;2023-03-14T00:05:49;98361.45;;;22.58;47.30
75745;BME280;64359;51.366;-0.222;2023-03-14T00:06:51;98360.75;;;22.58;47.14
75745;BME280;64359;51.366;-0.222;2023-03-14T00:07:53;98363.79;;;22.58;47.24
75745;BME280;64359;51.366;-0.222;2023-03-14T00:08:56;98359.23;;;22.59;47.37
75745;BME280;64359;51.366;-0.222;2023-03-14T00:09:58;98356.73;;;22.58;47.30
75745;BME280;64359;51.366;-0.222;2023-03-14T00:11:05;98360.31;;;22.58;47.22
75745;BME280;64359;51.366;-0.222;2023-03-14T00:12:08;98358.15;;;22.58;47.27
75745;BME280;64359;51.366;-0.222;2023-03-14T00:13:10;98359.44;;;22.58;47.31
75745;BME280;64359;51.366;-0.222;2023-03-14T00:14:13;98362.81;;;22.59;47.22
75745;BME280;64359;51.366;-0.222;2023-03-14T00:15:17;98362.38;;;22.59;47.21
75745;BME280;64359;51.366;-0.222;2023-03-14T00:16:19;98362.42;;;22.59;47.18
75745;BME280;64359;51.366;-0.222;2023-03-14T00:17:22;98363.96;;;22.59;47.41
75745;BME280;64359;51.366;-0.222;2023-03-14T00:18:24;98363.63;;;22.59;47.49
75745;BME280;64359;51.366;-0.222;2023-03-14T00:19:26;98361.45;;;22.59;47.34
75745;BME280;64359;51.366;-0.222;2023-03-14T00:20:29;98363.41;;;22.59;47.44
75745;BME280;64359;51.366;-0.222;2023-03-14T00:21:31;98366.08;;;22.60;47.40
75745;BME280;64359;51.366;-0.222;2023-03-14T00:22:33;98366.23;;;22.60;47.40
75745;BME280;64359;51.366;-0.222;2023-03-14T00:23:37;98365.37;;;22.59;47.24
75745;BME280;64359;51.366;-0.222;2023-03-14T00:24:40;98368.41;;;22.60;47.33
75745;BME280;64359;51.366;-0.222;2023-03-14T00:25:42;98368.73;;;22.60;47.30
75745;BME280;64359;51.366;-0.222;2023-03-14T00:26:44;98366.08;;;22.60;47.50
75745;BME280;64359;51.366;-0.222;2023-03-14T00:27:46;98367.11;;;22.60;47.19
75745;BME280;64359;51.366;-0.222;2023-03-14T00:28:51;98369.65;;;22.60;47.19
75745;BME280;64359;51.366;-0.222;2023-03-14T00:29:54;98370.20;;;22.60;47.26
75745;BME280;64359;51.366;-0.222;2023-03-14T00:30:57;98371.66;;;22.60;47.44
75745;BME280;64359;51.366;-0.222;2023-03-14T00:31:59;98373.45;;;22.60;47.28
75745;BME280;64359;51.366;-0.222;2023-03-14T00:33:01;98371.07;;;22.60;47.38
75745;BME280;64359;51.366;-0.222;2023-03-14T00:34:03;98373.13;;;22.60;47.48
75745;BME280;64359;51.366;-0.222;2023-03-14T00:35:07;98373.29;;;22.60;47.60
75745;BME280;64359;51.366;-0.222;2023-03-14T00:36:13;98373.56;;;22.60;47.37
75745;BME280;64359;51.366;-0.222;2023-03-14T00:37:15;98375.73;;;22.60;47.32
75745;BME280;64359;51.366;-0.222;2023-03-14T00:38:17;98375.41;;;22.60;47.30
75745;BME280;64359;51.366;-0.222;2023-03-14T00:39:20;98378.72;;;22.60;47.36
75745;BME280;64359;51.366;-0.222;2023-03-14T00:40:22;98378.29;;;22.60;47.41
75745;BME280;64359;51.366;-0.222;2023-03-14T00:41:24;98379.11;;;22.61;47.55
75745;BME280;64359;51.366;-0.222;2023-03-14T00:42:27;98377.69;;;22.60;47.41
75745;BME280;64359;51.366;-0.222;2023-03-14T00:43:29;98378.66;;;22.60;47.53
75745;BME280;64359;51.366;-0.222;2023-03-14T00:44:31;98382.04;;;22.60;47.42
75745;BME280;64359;51.366;-0.222;2023-03-14T00:45:33;98383.94;;;22.61;47.42
75745;BME280;64359;51.366;-0.222;2023-03-14T00:46:36;98378.94;;;22.60;47.34
75745;BME280;64359;51.366;-0.222;2023-03-14T00:47:38;98375.09;;;22.61;47.40
75745;BME280;64359;51.366;-0.222;2023-03-14T00:48:41;98375.85;;;22.61;47.25
75745;BME280;64359;51.366;-0.222;2023-03-14T00:49:43;98377.86;;;22.61;47.29
75745;BME280;64359;51.366;-0.222;2023-03-14T00:50:46;98382.86;;;22.61;47.35
75745;BME280;64359;51.366;-0.222;2023-03-14T00:51:48;98386.16;;;22.60;47.18
75745;BME280;64359;51.366;-0.222;2023-03-14T00:52:51;98392.24;;;22.61;47.38
75745;BME280;64359;51.366;-0.222;2023-03-14T00:53:53;98391.37;;;22.61;47.15
75745;BME280;64359;51.366;-0.222;2023-03-14T00:54:55;98393.92;;;22.61;47.31
75745;BME280;64359;51.366;-0.222;2023-03-14T00:56:01;98394.46;;;22.61;47.11
75745;BME280;64359;51.366;-0.222;2023-03-14T00:57:04;98397.34;;;22.61;47.35
75745;BME280;64359;51.366;-0.222;2023-03-14T00:58:06;98396.64;;;22.61;47.42
75745;BME280;64359;51.366;-0.222;2023-03-14T00:59:08;98400.77;;;22.61;47.44
75745;BME280;64359;51.366;-0.222;2023-03-14T01:00:13;98398.38;;;22.61;47.44
75745;BME280;64359;51.366;-0.222;2023-03-14T01:01:17;98400.82;;;22.61;47.29
75745;BME280;64359;51.366;-0.222;2023-03-14T01:02:20;98398.00;;;22.61;47.30
75745;BME280;64359;51.366;-0.222;2023-03-14T01:03:23;98398.38;;;22.61;47.23
75745;BME280;64359;51.366;-0.222;2023-03-14T01:04:25;98400.23;;;22.62;47.23
75745;BME280;64359;51.366;-0.222;2023-03-14T01:05:28;98402.23;;;22.62;47.27
75745;BME280;64359;51.366;-0.222;2023-03-14T01:06:30;98398.27;;;22.62;47.36
75745;BME280;64359;51.366;-0.222;2023-03-14T01:07:33;98405.66;;;22.62;47.46
75745;BME280;64359;51.366;-0.222;2023-03-14T01:08:35;98403.16;;;22.63;47.60
75745;BME280;64359;51.366;-0.222;2023-03-14T01:09:37;98401.70;;;22.63;47.57
75745;BME280;64359;51.366;-0.222;2023-03-14T01:10:41;98405.11;;;22.63;47.68
75745;BME280;64359;51.366;-0.222;2023-03-14T01:11:42;98411.36;;;22.63;47.77
75745;BME280;64359;51.366;-0.222;2023-03-14T01:12:48;98417.42;;;22.61;47.70
75745;BME280;64359;51.366;-0.222;2023-03-14T01:13:50;98417.37;;;22.61;47.79
75745;BME280;64359;51.366;-0.222;2023-03-14T01:14:53;98421.17;;;22.61;47.72
75745;BME280;64359;51.366;-0.222;2023-03-14T01:15:55;98422.58;;;22.61;47.55
75745;BME280;64359;51.366;-0.222;2023-03-14T01:17:02;98423.46;;;22.61;47.49
75745;BME280;64359;51.366;-0.222;2023-03-14T01:18:04;98432.09;;;22.62;47.42
75745;BME280;64359;51.366;-0.222;2023-03-14T01:19:07;98431.49;;;22.62;47.29
75745;BME280;64359;51.366;-0.222;2023-03-14T01:20:12;98444.73;;;22.62;47.32
75745;BME280;64359;51.366;-0.222;2023-03-14T01:21:17;98496.08;;;22.62;47.55
75745;BME280;64359;51.366;-0.222;2023-03-14T01:22:19;98548.57;;;22.62;47.32
75745;BME280;64359;51.366;-0.222;2023-03-14T01:23:21;98551.23;;;22.62;47.43
75745;BME280;64359;51.366;-0.222;2023-03-14T01:24:24;98555.23;;;22.60;47.34
75745;BME280;64359;51.366;-0.222;2023-03-14T01:25:26;98555.98;;;22.60;47.41
75745;BME280;64359;51.366;-0.222;2023-03-14T01:26:31;98560.76;;;22.60;47.31
75745;BME280;64359;51.366;-0.222;2023-03-14T01:27:33;98559.30;;;22.61;47.33
75745;BME280;64359;51.366;-0.222;2023-03-14T01:28:36;98569.45;;;22.60;47.22
75745;BME280;64359;51.366;-0.222;2023-03-14T01:29:38;98571.45;;;22.60;47.32
75745;BME280;64359;51.366;-0.222;2023-03-14T01:30:40;98574.45;;;22.61;47.14
75745;BME280;64359;51.366;-0.222;2023-03-14T01:31:43;98576.95;;;22.61;47.65
75745;BME280;64359;51.366;-0.222;2023-03-14T01:32:45;98584.70;;;22.61;47.43
75745;BME280;64359;51.366;-0.222;2023-03-14T01:33:47;98589.00;;;22.61;47.38
75745;BME280;64359;51.366;-0.222;2023-03-14T01:34:49;98595.95;;;22.62;47.45
75745;BME280;64359;51.366;-0.222;2023-03-14T01:35:52;98600.46;;;22.62;47.47
75745;BME280;64359;51.366;-0.222;2023-03-14T01:36:54;98604.97;;;22.62;47.44
75745;BME280;64359;51.366;-0.222;2023-03-14T01:37:56;98610.35;;;22.63;47.49
75745;BME280;64359;51.366;-0.222;2023-03-14T01:38:59;98616.15;;;22.63;47.33
75745;BME280;64359;51.366;-0.222;2023-03-14T01:40:01;98618.32;;;22.62;47.35
75745;BME280;64359;51.366;-0.222;2023-03-14T01:41:06;98626.52;;;22.63;47.34
75745;BME280;64359;51.366;-0.222;2023-03-14T01:42:09;98630.70;;;22.63;47.36
75745;BME280;64359;51.366;-0.222;2023-03-14T01:43:16;98638.96;;;22.63;47.34
75745;BME280;64359;51.366;-0.222;2023-03-14T01:44:19;98645.69;;;22.63;47.35
75745;BME280;64359;51.366;-0.222;2023-03-14T01:46:58;98660.98;;;22.63;47.44
75745;BME280;64359;51.366;-0.222;2023-03-14T01:48:01;98660.61;;;22.63;47.35
75745;BME280;64359;51.366;-0.222;2023-03-14T01:49:14;98662.94;;;22.63;47.34
75745;BME280;64359;51.366;-0.222;2023-03-14T01:50:18;98669.13;;;22.63;47.25
75745;BME280;64359;51.366;-0.222;2023-03-14T01:51:23;98676.02;;;22.63;47.46
75745;BME280;64359;51.366;-0.222;2023-03-14T01:52:29;98678.19;;;22.62;47.60
75745;BME280;64359;51.366;-0.222;2023-03-14T01:53:35;98684.11;;;22.63;47.52
75745;BME280;64359;51.366;-0.222;2023-03-14T01:54:40;98684.87;;;22.63;47.55
75745;BME280;64359;51.366;-0.222;2023-03-14T01:55:43;98688.61;;;22.63;47.45
75745;BME280;64359;51.366;-0.222;2023-03-14T01:56:50;98691.88;;;22.63;47.31
75745;BME280;64359;51.366;-0.222;2023-03-14T01:57:56;98694.27;;;22.63;47.42
75745;BME280;64359;51.366;-0.222;2023-03-14T01:59:01;98699.09;;;22.63;47.39
75745;BME280;64359;51.366;-0.222;2023-03-14T02:00:11;98702.34;;;22.63;47.18
75745;BME280;64359;51.366;-0.222;2023-03-14T02:01:15;98703.01;;;22.63;47.28
75745;BME280;64359;51.366;-0.222;2023-03-14T02:02:18;98707.08;;;22.63;47.41
75745;BME280;64359;51.366;-0.222;2023-03-14T02:03:22;98708.27;;;22.63;47.41
75745;BME280;64359;51.366;-0.222;2023-03-14T02:04:29;98711.15;;;22.64;47.44
75745;BME280;64359;51.366;-0.222;2023-03-14T02:05:36;98711.91;;;22.63;47.36
75745;BME280;64359;51.366;-0.222;2023-03-14T02:06:46;98715.70;;;22.63;47.49
75745;BME280;64359;51.366;-0.222;2023-03-14T02:07:49;98719.30;;;22.63;47.18
75745;BME280;64359;51.366;-0.222;2023-03-14T02:08:52;98719.73;;;22.61;47.41
75745;BME280;64359;51.366;-0.222;2023-03-14T02:09:55;98719.73;;;22.61;47.35
75745;BME280;64359;51.366;-0.222;2023-03-14T02:10:58;98719.75;;;22.61;47.25
75745;BME280;64359;51.366;-0.222;2023-03-14T02:12:00;98723.16;;;22.61;47.52
75745;BME280;64359;51.366;-0.222;2023-03-14T02:13:04;98727.02;;;22.62;47.57
75745;BME280;64359;51.366;-0.222;2023-03-14T02:14:08;98726.16;;;22.61;47.37
75745;BME280;64359;51.366;-0.222;2023-03-14T02:15:16;98728.81;;;22.62;47.42
75745;BME280;64359;51.366;-0.222;2023-03-14T02:16:18;98734.95;;;22.62;47.26
75745;BME280;64359;51.366;-0.222;2023-03-14T02:17:21;98737.99;;;22.62;47.36
75745;BME280;64359;51.366;-0.222;2023-03-14T02:18:24;98735.51;;;22.63;47.13
75745;BME280;64359;51.366;-0.222;2023-03-14T02:19:36;98740.17;;;22.63;46.99
75745;BME280;64359;51.366;-0.222;2023-03-14T02:20:50;98740.08;;;22.62;47.12
75745;BME280;64359;51.366;-0.222;2023-03-14T02:22:00;98745.28;;;22.63;47.09
75745;BME280;64359;51.366;-0.222;2023-03-14T02:23:03;98747.19;;;22.63;46.92
75745;BME280;64359;51.366;-0.222;2023-03-14T02:24:12;98747.73;;;22.63;47.10
75745;BME280;64359;51.366;-0.222;2023-03-14T02:25:22;98752.90;;;22.64;47.37
75745;BME280;64359;51.366;-0.222;2023-03-14T02:26:34;98765.77;;;22.64;46.98
75745;BME280;64359;51.366;-0.222;2023-03-14T02:27:39;98767.77;;;22.64;47.01
75745;BME280;64359;51.366;-0.222;2023-03-14T02:28:41;98772.61;;;22.64;47.31
75745;BME280;64359;51.366;-0.222;2023-03-14T02:29:51;98778.30;;;22.65;47.22
75745;BME280;64359;51.366;-0.222;2023-03-14T02:30:54;98781.89;;;22.65;47.25
75745;BME280;64359;51.366;-0.222;2023-03-14T02:31:56;98788.52;;;22.65;47.21
75745;BME280;64359;51.366;-0.222;2023-03-14T02:33:01;98792.86;;;22.65;47.18
75745;BME280;64359;51.366;-0.222;2023-03-14T02:34:05;98793.58;;;22.65;47.32
75745;BME280;64359;51.366;-0.222;2023-03-14T02:35:10;98793.23;;;22.65;47.20
75745;BME280;64359;51.366;-0.222;2023-03-14T02:36:14;98803.72;;;22.65;47.32
75745;BME280;64359;51.366;-0.222;2023-03-14T02:37:18;98807.52;;;22.65;47.25
75745;BME280;64359;51.366;-0.222;2023-03-14T02:38:23;98807.02;;;22.65;47.21
75745;BME280;64359;51.366;-0.222;2023-03-14T02:39:35;98809.31;;;22.65;47.22
75745;BME280;64359;51.366;-0.222;2023-03-14T02:40:38;98811.41;;;22.65;47.18
75745;BME280;64359;51.366;-0.222;2023-03-14T02:41:40;98815.44;;;22.64;47.26
75745;BME280;64359;51.366;-0.222;2023-03-14T02:42:44;98822.34;;;22.65;47.36
75745;BME280;64359;51.366;-0.222;2023-03-14T02:43:46;98826.40;;;22.65;47.14
75745;BME280;64359;51.366;-0.222;2023-03-14T02:44:53;98821.25;;;22.65;47.24
75745;BME280;64359;51.366;-0.222;2023-03-14T02:45:56;98827.82;;;22.65;47.08
75745;BME280;64359;51.366;-0.222;2023-03-14T02:46:58;98831.79;;;22.65;47.16
75745;BME280;64359;51.366;-0.222;2023-03-14T02:48:04;98837.27;;;22.65;47.36
75745;BME280;64359;51.366;-0.222;2023-03-14T02:49:10;98837.75;;;22.65;47.28
75745;BME280;64359;51.366;-0.222;2023-03-14T02:50:17;98843.18;;;22.65;47.27
75745;BME280;64359;51.366;-0.222;2023-03-14T02:51:21;98842.80;;;22.65;47.26
75745;BME280;64359;51.366;-0.222;2023-03-14T02:52:25;98849.41;;;22.64;47.35
75745;BME280;64359;51.366;-0.222;2023-03-14T02:53:30;98845.73;;;22.65;47.21
75745;BME280;64359;51.366;-0.222;2023-03-14T02:54:33;98851.00;;;22.65;47.15
75745;BME280;64359;51.366;-0.222;2023-03-14T02:55:35;98857.08;;;22.65;47.25
75745;BME280;64359;51.366;-0.222;2023-03-14T02:56:37;98856.26;;;22.65;47.01
75745;BME280;64359;51.366;-0.222;2023-03-14T02:57:40;98859.69;;;22.65;47.13
75745;BME280;64359;51.366;-0.222;2023-03-14T02:58:42;98860.34;;;22.65;47.11
75745;BME280;64359;51.366;-0.222;2023-03-14T02:59:44;98861.96;;;22.65;47.16
75745;BME280;64359;51.366;-0.222;2023-03-14T03:00:47;98866.69;;;22.65;47.29
75745;BME280;64359;51.366;-0.222;2023-03-14T03:01:49;98872.06;;;22.65;47.08
75745;BME280;64359;51.366;-0.222;2023-03-14T03:02:52;98872.89;;;22.66;47.37
75745;BME280;64359;51.366;-0.222;2023-03-14T03:03:54;98875.27;;;22.66;47.17
75745;BME280;64359;51.366;-0.222;2023-03-14T03:04:56;98874.59;;;22.63;47.17
75745;BME280;64359;51.366;-0.222;2023-03-14T03:05:59;98877.04;;;22.64;47.11
75745;BME280;64359;51.366;-0.222;2023-03-14T03:07:02;98879.41;;;22.63;46.91
75745;BME280;64359;51.366;-0.222;2023-03-14T03:08:04;98878.51;;;22.64;46.80
75745;BME280;64359;51.366;-0.222;2023-03-14T03:09:07;98878.08;;;22.64;46.84
75745;BME280;64359;51.366;-0.222;2023-03-14T03:10:11;98879.98;;;22.65;46.67
75745;BME280;64359;51.366;-0.222;2023-03-14T03:11:13;98884.06;;;22.65;46.83
75745;BME280;64359;51.366;-0.222;2023-03-14T03:12:16;98885.27;;;22.65;46.70
75745;BME280;64359;51.366;-0.222;2023-03-14T03:13:19;98887.38;;;22.66;46.61
75745;BME280;64359;51.366;-0.222;2023-03-14T03:14:21;98888.38;;;22.66;46.70
75745;BME280;64359;51.366;-0.222;2023-03-14T03:15:23;98886.96;;;22.66;46.84
75745;BME280;64359;51.366;-0.222;2023-03-14T03:16:26;98891.09;;;22.66;46.79
75745;BME280;64359;51.366;-0.222;2023-03-14T03:17:28;98889.73;;;22.67;46.66
75745;BME280;64359;51.366;-0.222;2023-03-14T03:18:31;98895.28;;;22.67;46.57
75745;BME280;64359;51.366;-0.222;2023-03-14T03:19:34;98897.19;;;22.68;46.64
75745;BME280;64359;51.366;-0.222;2023-03-14T03:20:36;98902.45;;;22.68;46.68
75745;BME280;64359;51.366;-0.222;2023-03-14T03:21:39;98904.36;;;22.68;46.72
75745;BME280;64359;51.366;-0.222;2023-03-14T03:22:41;98909.20;;;22.69;46.85
75745;BME280;64359;51.366;-0.222;2023-03-14T03:23:43;98908.98;;;22.69;46.96
75745;BME280;64359;51.366;-0.222;2023-03-14T03:24:46;98907.83;;;22.68;46.98
75745;BME280;64359;51.366;-0.222;2023-03-14T03:25:49;98911.41;;;22.68;47.05
75745;BME280;64359;51.366;-0.222;2023-03-14T03:26:52;98914.24;;;22.69;46.84
75745;BME280;64359;51.366;-0.222;2023-03-14T03:27:54;98918.80;;;22.68;46.92
75745;BME280;64359;51.366;-0.222;2023-03-14T03:28:56;98919.02;;;22.68;46.89
75745;BME280;64359;51.366;-0.222;2023-03-14T03:29:59;98921.46;;;22.69;46.95
75745;BME280;64359;51.366;-0.222;2023-03-14T03:31:08;98928.31;;;22.69;46.97
75745;BME280;64359;51.366;-0.222;2023-03-14T03:32:11;98928.36;;;22.69;46.93
75745;BME280;64359;51.366;-0.222;2023-03-14T03:33:13;98927.33;;;22.68;46.82
75745;BME280;64359;51.366;-0.222;2023-03-14T03:34:16;98937.21;;;22.69;47.14
75745;BME280;64359;51.366;-0.222;2023-03-14T03:35:18;98938.13;;;22.69;47.17
75745;BME280;64359;51.366;-0.222;2023-03-14T03:36:22;98935.35;;;22.68;47.11
75745;BME280;64359;51.366;-0.222;2023-03-14T03:37:24;98939.59;;;22.69;47.00
75745;BME280;64359;51.366;-0.222;2023-03-14T03:38:27;98945.95;;;22.69;46.85
75745;BME280;64359;51.366;-0.222;2023-03-14T03:39:29;98946.11;;;22.68;46.85
75745;BME280;64359;51.366;-0.222;2023-03-14T03:40:31;98947.58;;;22.69;46.74
75745;BME280;64359;51.366;-0.222;2023-03-14T03:41:34;98953.38;;;22.68;46.71
75745;BME280;64359;51.366;-0.222;2023-03-14T03:42:36;98956.05;;;22.69;46.96
75745;BME280;64359;51.366;-0.222;2023-03-14T03:43:38;98958.53;;;22.68;46.73
75745;BME280;64359;51.366;-0.222;2023-03-14T03:44:41;98960.65;;;22.68;46.86
75745;BME280;64359;51.366;-0.222;2023-03-14T03:45:43;98959.29;;;22.68;46.90
75745;BME280;64359;51.366;-0.222;2023-03-14T03:46:45;98961.89;;;22.67;47.03
75745;BME280;64359;51.366;-0.222;2023-03-14T03:47:47;98964.05;;;22.67;46.82
75745;BME280;64359;51.366;-0.222;2023-03-14T03:48:54;98972.58;;;22.67;46.95
75745;BME280;64359;51.366;-0.222;2023-03-14T03:49:57;98974.80;;;22.67;46.99
75745;BME280;64359;51.366;-0.222;2023-03-14T03:50:59;98979.19;;;22.67;46.81
75745;BME280;64359;51.366;-0.222;2023-03-14T03:52:01;98973.60;;;22.66;46.79
75745;BME280;64359;51.366;-0.222;2023-03-14T03:53:04;98984.30;;;22.66;46.81
75745;BME280;64359;51.366;-0.222;2023-03-14T03:54:06;98985.98;;;22.66;46.83
75745;BME280;64359;51.366;-0.222;2023-03-14T03:55:09;98991.39;;;22.66;47.01
75745;BME280;64359;51.366;-0.222;2023-03-14T03:56:11;98988.20;;;22.66;46.86
75745;BME280;64359;51.366;-0.222;2023-03-14T03:57:13;98992.37;;;22.65;46.88
75745;BME280;64359;51.366;-0.222;2023-03-14T03:58:16;98996.55;;;22.65;46.85
75745;BME280;64359;51.366;-0.222;2023-03-14T03:59:18;98993.88;;;22.65;46.88
75745;BME280;64359;51.366;-0.222;2023-03-14T04:00:21;98992.96;;;22.65;46.91
75745;BME280;64359;51.366;-0.222;2023-03-14T04:01:23;98996.70;;;22.65;46.83
75745;BME280;64359;51.366;-0.222;2023-03-14T04:02:25;98999.59;;;22.66;47.01
75745;BME280;64359;51.366;-0.222;2023-03-14T04:03:28;99005.98;;;22.65;46.82
75745;BME280;64359;51.366;-0.222;2023-03-14T04:04:30;99012.61;;;22.66;46.70
75745;BME280;64359;51.366;-0.222;2023-03-14T04:05:32;99007.57;;;22.66;46.79
75745;BME280;64359;51.366;-0.222;2023-03-14T04:06:36;99004.97;;;22.66;46.70
75745;BME280;64359;51.366;-0.222;2023-03-14T04:07:38;99008.98;;;22.66;46.60
75745;BME280;64359;51.366;-0.222;2023-03-14T04:08:41;99016.58;;;22.66;46.45
75745;BME280;64359;51.366;-0.222;2023-03-14T04:09:43;99025.55;;;22.66;46.48
75745;BME280;64359;51.366;-0.222;2023-03-14T04:10:45;99027.50;;;22.66;46.39
75745;BME280;64359;51.366;-0.222;2023-03-14T04:11:48;99027.84;;;22.67;46.54
75745;BME280;64359;51.366;-0.222;2023-03-14T04:12:50;99030.45;;;22.67;46.33
75745;BME280;64359;51.366;-0.222;2023-03-14T04:13:52;99029.54;;;22.67;46.28
75745;BME280;64359;51.366;-0.222;2023-03-14T04:14:54;99037.25;;;22.68;46.35
75745;BME280;64359;51.366;-0.222;2023-03-14T04:15:57;99037.79;;;22.68;46.43
75745;BME280;64359;51.366;-0.222;2023-03-14T04:16:59;99048.98;;;22.68;46.13
75745;BME280;64359;51.366;-0.222;2023-03-14T04:18:01;99049.31;;;22.68;46.20
75745;BME280;64359;51.366;-0.222;2023-03-14T04:19:04;99053.72;;;22.69;46.07
75745;BME280;64359;51.366;-0.222;2023-03-14T04:20:08;99055.14;;;22.70;46.03
75745;BME280;64359;51.366;-0.222;2023-03-14T04:21:12;99055.30;;;22.70;46.29
75745;BME280;64359;51.366;-0.222;2023-03-14T04:22:14;99057.75;;;22.70;46.34
75745;BME280;64359;51.366;-0.222;2023-03-14T04:23:17;99064.15;;;22.70;46.51
75745;BME280;64359;51.366;-0.222;2023-03-14T04:24:19;99066.98;;;22.70;46.42
75745;BME280;64359;51.366;-0.222;2023-03-14T04:25:21;99074.41;;;22.70;46.21
75745;BME280;64359;51.366;-0.222;2023-03-14T04:26:23;99075.34;;;22.70;46.44
75745;BME280;64359;51.366;-0.222;2023-03-14T04:27:26;99078.64;;;22.70;46.22
75745;BME280;64359;51.366;-0.222;2023-03-14T04:28:28;99078.92;;;22.70;46.53
75745;BME280;64359;51.366;-0.222;2023-03-14T04:29:30;99077.84;;;22.70;46.69
75745;BME280;64359;51.366;-0.222;2023-03-14T04:30:32;99078.75;;;22.70;46.52
75745;BME280;64359;51.366;-0.222;2023-03-14T04:31:35;99083.31;;;22.70;46.48
75745;BME280;64359;51.366;-0.222;2023-03-14T04:32:39;99084.69;;;22.70;46.48
75745;BME280;64359;51.366;-0.222;2023-03-14T04:33:41;99083.64;;;22.70;46.78
75745;BME280;64359;51.366;-0.222;2023-03-14T04:34:43;99090.66;;;22.70;46.47
75745;BME280;64359;51.366;-0.222;2023-03-14T04:35:46;99094.55;;;22.70;46.77
75745;BME280;64359;51.366;-0.222;2023-03-14T04:36:49;99103.14;;;22.71;46.77
75745;BME280;64359;51.366;-0.222;2023-03-14T04:37:51;99110.41;;;22.70;46.67
75745;BME280;64359;51.366;-0.222;2023-03-14T04:38:53;99116.92;;;22.70;46.71
75745;BME280;64359;51.366;-0.222;2023-03-14T04:39:55;99123.06;;;22.70;46.66
75745;BME280;64359;51.366;-0.222;2023-03-14T04:40:58;99127.08;;;22.70;46.53
75745;BME280;64359;51.366;-0.222;2023-03-14T04:42:00;99127.36;;;22.71;46.35
75745;BME280;64359;51.366;-0.222;2023-03-14T04:43:03;99127.84;;;22.70;46.31
75745;BME280;64359;51.366;-0.222;2023-03-14T04:44:05;99133.05;;;22.70;46.62
75745;BME280;64359;51.366;-0.222;2023-03-14T04:45:09;99135.60;;;22.70;46.25
75745;BME280;64359;51.366;-0.222;2023-03-14T04:46:11;99138.91;;;22.70;46.46
75745;BME280;64359;51.366;-0.222;2023-03-14T04:47:13;99136.41;;;22.69;46.52
75745;BME280;64359;51.366;-0.222;2023-03-14T04:48:16;99137.49;;;22.69;46.79
75745;BME280;64359;51.366;-0.222;2023-03-14T04:49:18;99142.27;;;22.69;46.31
75745;BME280;64359;51.366;-0.222;2023-03-14T04:50:20;99148.39;;;22.69;46.40
75745;BME280;64359;51.366;-0.222;2023-03-14T04:51:23;99153.78;;;22.69;46.50
75745;BME280;64359;51.366;-0.222;2023-03-14T04:52:28;99156.71;;;22.69;46.55
75745;BME280;64359;51.366;-0.222;2023-03-14T04:53:31;99154.91;;;22.69;46.50
75745;BME280;64359;51.366;-0.222;2023-03-14T04:54:33;99165.44;;;22.69;46.36
75745;BME280;64359;51.366;-0.222;2023-03-14T04:55:35;99163.86;;;22.68;46.30
75745;BME280;64359;51.366;-0.222;2023-03-14T04:56:38;99161.73;;;22.68;46.51
75745;BME280;64359;51.366;-0.222;2023-03-14T04:57:40;99169.55;;;22.67;46.17
75745;BME280;64359;51.366;-0.222;2023-03-14T04:58:42;99171.06;;;22.67;46.15
75745;BME280;64359;51.366;-0.222;2023-03-14T04:59:45;99174.20;;;22.67;46.30
75745;BME280;64359;51.366;-0.222;2023-03-14T05:00:48;99170.61;;;22.67;46.46
75745;BME280;64359;51.366;-0.222;2023-03-14T05:01:50;99177.63;;;22.67;46.40
75745;BME280;64359;51.366;-0.222;2023-03-14T05:02:53;99174.63;;;22.66;46.32
75745;BME280;64359;51.366;-0.222;2023-03-14T05:03:55;99181.95;;;22.66;46.33
75745;BME280;64359;51.366;-0.222;2023-03-14T05:04:57;99181.89;;;22.66;46.20
75745;BME280;64359;51.366;-0.222;2023-03-14T05:05:59;99186.61;;;22.66;46.36
75745;BME280;64359;51.366;-0.222;2023-03-14T05:07:02;99192.77;;;22.66;46.41
75745;BME280;64359;51.366;-0.222;2023-03-14T05:08:04;99192.75;;;22.66;46.68
75745;BME280;64359;51.366;-0.222;2023-03-14T05:09:07;99197.26;;;22.66;46.41
75745;BME280;64359;51.366;-0.222;2023-03-14T05:10:11;99198.02;;;22.66;46.31
75745;BME280;64359;51.366;-0.222;2023-03-14T05:11:13;99199.06;;;22.67;46.37
75745;BME280;64359;51.366;-0.222;2023-03-14T05:12:15;99201.83;;;22.66;46.43
75745;BME280;64359;51.366;-0.222;2023-03-14T05:13:17;99203.95;;;22.66;46.05
75745;BME280;64359;51.366;-0.222;2023-03-14T05:14:20;99202.01;;;22.67;46.20
75745;BME280;64359;51.366;-0.222;2023-03-14T05:15:22;99206.52;;;22.67;46.08
75745;BME280;64359;51.366;-0.222;2023-03-14T05:16:24;99204.56;;;22.67;46.06
75745;BME280;64359;51.366;-0.222;2023-03-14T05:17:27;99210.06;;;22.68;46.00
75745;BME280;64359;51.366;-0.222;2023-03-14T05:18:29;99209.13;;;22.68;45.95
75745;BME280;64359;51.366;-0.222;2023-03-14T05:19:31;99220.36;;;22.68;46.01
75745;BME280;64359;51.366;-0.222;2023-03-14T05:20:34;99214.23;;;22.68;45.87
75745;BME280;64359;51.366;-0.222;2023-03-14T05:21:37;99220.45;;;22.69;45.83
75745;BME280;64359;51.366;-0.222;2023-03-14T05:22:40;99221.86;;;22.69;45.92
75745;BME280;64359;51.366;-0.222;2023-03-14T05:23:42;99224.77;;;22.69;45.84
75745;BME280;64359;51.366;-0.222;2023-03-14T05:24:44;99224.56;;;22.69;45.82
75745;BME280;64359;51.366;-0.222;2023-03-14T05:25:46;99228.98;;;22.70;46.06
75745;BME280;64359;51.366;-0.222;2023-03-14T05:26:48;99228.91;;;22.69;46.18
75745;BME280;64359;51.366;-0.222;2023-03-14T05:27:54;99229.23;;;22.69;46.12
75745;BME280;64359;51.366;-0.222;2023-03-14T05:28:56;99234.51;;;22.69;46.22
75745;BME280;64359;51.366;-0.222;2023-03-14T05:29:58;99232.05;;;22.68;46.42
75745;BME280;64359;51.366;-0.222;2023-03-14T05:31:01;99239.45;;;22.69;45.92
75745;BME280;64359;51.366;-0.222;2023-03-14T05:32:03;99241.56;;;22.69;46.42